sensor_id;sensor_type;location;lat;lon;timestamp;P1;durP1;ratioP1;P2;durP2;ratioP2
23117;SDS011;11728;50.624;6.014;2023-02-28T00:01:50;10.05;;;4.53;;
23117;SDS011;11728;50.624;6.014;2023-02-28T00:06:50;10.30;;;4.72;;
23117;SDS011;11728;50.624;6.014;2023-02-28T00:11:51;11.15;;;5.22;;
23117;SDS011;11728;50.624;6.014;2023-02-28T00:16:51;13.63;;;6.20;;
23117;SDS011;11728;50.624;6.014;2023-02-28T00:21:51;15.07;;;6.28;;
23117;SDS011;11728;50.624;6.014;2023-02-28T00:26:52;11.80;;;5.97;;
23117;SDS011;11728;50.624;6.014;2023-02-28T00:31:52;11.80;;;5.03;;
23117;SDS011;11728;50.624;6.014;2023-02-28T00:36:52;11.83;;;5.70;;
23117;SDS011;11728;50.624;6.014;2023-02-28T00:41:53;14.95;;;5.60;;
23117;SDS011;11728;50.624;6.014;2023-02-28T00:46:53;11.53;;;4.97;;
23117;SDS011;11728;50.624;6.014;2023-02-28T00:51:54;11.15;;;4.85;;
23117;SDS011;11728;50.624;6.014;2023-02-28T00:56:55;12.80;;;5.05;;
23117;SDS011;11728;50.624;6.014;2023-02-28T01:01:55;13.57;;;6.57;;
23117;SDS011;11728;50.624;6.014;2023-02-28T01:06:56;15.05;;;5.15;;
23117;SDS011;11728;50.624;6.014;2023-02-28T01:11:56;8.50;;;4.90;;
23117;SDS011;11728;50.624;6.014;2023-02-28T01:16:56;9.18;;;4.95;;
23117;SDS011;11728;50.624;6.014;2023-02-28T01:21:59;7.82;;;4.28;;
23117;SDS011;11728;50.624;6.014;2023-02-28T01:27:00;9.23;;;5.00;;
23117;SDS011;11728;50.624;6.014;2023-02-28T01:32:01;9.27;;;4.90;;
23117;SDS011;11728;50.624;6.014;2023-02-28T01:37:01;12.00;;;5.65;;
23117;SDS011;11728;50.624;6.014;2023-02-28T01:42:03;10.48;;;5.43;;
23117;SDS011;11728;50.624;6.014;2023-02-28T01:47:03;9.40;;;4.90;;
23117;SDS011;11728;50.624;6.014;2023-02-28T01:52:04;9.40;;;4.70;;
23117;SDS011;11728;50.624;6.014;2023-02-28T01:57:06;7.55;;;4.60;;
23117;SDS011;11728;50.624;6.014;2023-02-28T02:02:10;7.05;;;4.65;;
23117;SDS011;11728;50.624;6.014;2023-02-28T02:07:10;10.07;;;5.07;;
23117;SDS011;11728;50.624;6.014;2023-02-28T02:17:39;8.77;;;4.90;;
23117;SDS011;11728;50.624;6.014;2023-02-28T02:38:52;9.60;;;4.68;;
23117;SDS011;11728;50.624;6.014;2023-02-28T02:44:07;12.53;;;5.63;;
23117;SDS011;11728;50.624;6.014;2023-02-28T02:49:16;10.25;;;5.20;;
23117;SDS011;11728;50.624;6.014;2023-02-28T02:54:25;7.88;;;4.65;;
23117;SDS011;11728;50.624;6.014;2023-02-28T02:59:29;9.30;;;4.97;;
23117;SDS011;11728;50.624;6.014;2023-02-28T03:04:31;7.70;;;4.63;;
23117;SDS011;11728;50.624;6.014;2023-02-28T03:09:38;8.50;;;4.63;;
23117;SDS011;11728;50.624;6.014;2023-02-28T03:36:09;10.07;;;4.75;;
23117;SDS011;11728;50.624;6.014;2023-02-28T03:41:14;9.20;;;4.43;;
23117;SDS011;11728;50.624;6.014;2023-02-28T03:46:18;10.77;;;4.55;;
23117;SDS011;11728;50.624;6.014;2023-02-28T03:51:22;10.32;;;5.47;;
23117;SDS011;11728;50.624;6.014;2023-02-28T04:01:43;7.28;;;4.82;;
23117;SDS011;11728;50.624;6.014;2023-02-28T04:06:45;8.55;;;4.47;;
23117;SDS011;11728;50.624;6.014;2023-02-28T04:11:48;10.23;;;5.30;;
23117;SDS011;11728;50.624;6.014;2023-02-28T04:16:51;8.60;;;4.60;;
23117;SDS011;11728;50.624;6.014;2023-02-28T04:21:52;13.95;;;5.65;;
23117;SDS011;11728;50.624;6.014;2023-02-28T04:26:54;8.50;;;4.65;;
23117;SDS011;11728;50.624;6.014;2023-02-28T04:31:56;7.60;;;4.35;;
23117;SDS011;11728;50.624;6.014;2023-02-28T04:36:59;6.20;;;3.72;;
23117;SDS011;11728;50.624;6.014;2023-02-28T04:42:00;7.15;;;4.45;;
23117;SDS011;11728;50.624;6.014;2023-02-28T04:47:00;8.02;;;4.95;;
23117;SDS011;11728;50.624;6.014;2023-02-28T04:52:01;8.23;;;4.30;;
23117;SDS011;11728;50.624;6.014;2023-02-28T04:57:01;11.98;;;5.30;;
23117;SDS011;11728;50.624;6.014;2023-02-28T05:02:02;10.65;;;5.10;;
23117;SDS011;11728;50.624;6.014;2023-02-28T05:07:06;9.07;;;4.55;;
23117;SDS011;11728;50.624;6.014;2023-02-28T05:12:07;7.82;;;4.70;;
23117;SDS011;11728;50.624;6.014;2023-02-28T05:17:09;9.45;;;5.68;;
23117;SDS011;11728;50.624;6.014;2023-02-28T05:22:14;9.20;;;5.75;;
23117;SDS011;11728;50.624;6.014;2023-02-28T05:27:18;11.23;;;7.47;;
23117;SDS011;11728;50.624;6.014;2023-02-28T05:32:18;22.23;;;11.85;;
23117;SDS011;11728;50.624;6.014;2023-02-28T05:37:19;10.85;;;5.38;;
23117;SDS011;11728;50.624;6.014;2023-02-28T05:42:19;9.80;;;6.07;;
23117;SDS011;11728;50.624;6.014;2023-02-28T05:47:19;9.07;;;5.70;;
23117;SDS011;11728;50.624;6.014;2023-02-28T05:52:20;11.88;;;5.50;;
23117;SDS011;11728;50.624;6.014;2023-02-28T05:57:20;9.80;;;5.32;;
23117;SDS011;11728;50.624;6.014;2023-02-28T06:02:21;9.77;;;5.18;;
23117;SDS011;11728;50.624;6.014;2023-02-28T06:07:21;9.20;;;4.97;;
23117;SDS011;11728;50.624;6.014;2023-02-28T06:12:22;10.13;;;5.50;;
23117;SDS011;11728;50.624;6.014;2023-02-28T06:17:22;11.00;;;5.60;;
23117;SDS011;11728;50.624;6.014;2023-02-28T06:22:23;14.48;;;6.72;;
23117;SDS011;11728;50.624;6.014;2023-02-28T06:27:23;8.97;;;5.00;;
23117;SDS011;11728;50.624;6.014;2023-02-28T06:32:23;10.48;;;5.43;;
23117;SDS011;11728;50.624;6.014;2023-02-28T06:37:24;10.07;;;5.85;;
23117;SDS011;11728;50.624;6.014;2023-02-28T06:42:27;18.23;;;9.85;;
23117;SDS011;11728;50.624;6.014;2023-02-28T06:47:30;10.20;;;5.30;;
23117;SDS011;11728;50.624;6.014;2023-02-28T06:52:31;11.10;;;5.00;;
23117;SDS011;11728;50.624;6.014;2023-02-28T06:57:32;14.30;;;6.32;;
23117;SDS011;11728;50.624;6.014;2023-02-28T07:02:34;11.75;;;6.38;;
23117;SDS011;11728;50.624;6.014;2023-02-28T07:07:35;13.48;;;7.30;;
23117;SDS011;11728;50.624;6.014;2023-02-28T07:12:38;12.00;;;5.65;;
23117;SDS011;11728;50.624;6.014;2023-02-28T07:17:38;8.15;;;5.07;;
23117;SDS011;11728;50.624;6.014;2023-02-28T07:22:39;8.85;;;5.07;;
23117;SDS011;11728;50.624;6.014;2023-02-28T07:27:39;11.40;;;5.05;;
23117;SDS011;11728;50.624;6.014;2023-02-28T07:32:39;10.50;;;4.73;;
23117;SDS011;11728;50.624;6.014;2023-02-28T07:37:40;8.30;;;4.47;;
23117;SDS011;11728;50.624;6.014;2023-02-28T07:42:41;10.82;;;4.15;;
23117;SDS011;11728;50.624;6.014;2023-02-28T07:47:42;8.52;;;4.10;;
23117;SDS011;11728;50.624;6.014;2023-02-28T07:52:43;8.23;;;3.70;;
23117;SDS011;11728;50.624;6.014;2023-02-28T07:57:43;5.77;;;3.40;;
23117;SDS011;11728;50.624;6.014;2023-02-28T08:02:44;5.15;;;3.22;;
23117;SDS011;11728;50.624;6.014;2023-02-28T08:07:45;6.85;;;3.45;;
23117;SDS011;11728;50.624;6.014;2023-02-28T08:12:45;6.63;;;3.83;;
23117;SDS011;11728;50.624;6.014;2023-02-28T08:17:45;7.18;;;3.80;;
23117;SDS011;11728;50.624;6.014;2023-02-28T08:22:46;4.57;;;2.90;;
23117;SDS011;11728;50.624;6.014;2023-02-28T08:27:46;5.38;;;2.70;;
23117;SDS011;11728;50.624;6.014;2023-02-28T08:32:47;6.57;;;3.10;;
23117;SDS011;11728;50.624;6.014;2023-02-28T08:37:47;6.60;;;2.53;;
23117;SDS011;11728;50.624;6.014;2023-02-28T08:42:48;5.22;;;2.45;;
23117;SDS011;11728;50.624;6.014;2023-02-28T08:47:49;5.18;;;2.78;;
23117;SDS011;11728;50.624;6.014;2023-02-28T08:52:52;5.32;;;2.65;;
23117;SDS011;11728;50.624;6.014;2023-02-28T08:57:52;10.33;;;3.47;;
23117;SDS011;11728;50.624;6.014;2023-02-28T09:02:53;3.88;;;2.38;;
23117;SDS011;11728;50.624;6.014;2023-02-28T09:07:54;3.53;;;2.00;;
23117;SDS011;11728;50.624;6.014;2023-02-28T09:12:55;3.70;;;1.80;;
23117;SDS011;11728;50.624;6.014;2023-02-28T09:17:55;6.10;;;3.40;;
23117;SDS011;11728;50.624;6.014;2023-02-28T09:22:55;2.63;;;1.57;;
23117;SDS011;11728;50.624;6.014;2023-02-28T09:27:56;4.57;;;2.33;;
23117;SDS011;11728;50.624;6.014;2023-02-28T09:32:56;5.75;;;1.60;;
23117;SDS011;11728;50.624;6.014;2023-02-28T09:37:56;3.17;;;1.63;;
23117;SDS011;11728;50.624;6.014;2023-02-28T09:42:58;2.83;;;1.67;;
23117;SDS011;11728;50.624;6.014;2023-02-28T09:48:01;4.30;;;1.98;;
23117;SDS011;11728;50.624;6.014;2023-02-28T09:53:10;6.03;;;1.70;;
23117;SDS011;11728;50.624;6.014;2023-02-28T09:58:31;3.45;;;1.95;;
23117;SDS011;11728;50.624;6.014;2023-02-28T10:08:41;3.05;;;1.50;;
23117;SDS011;11728;50.624;6.014;2023-02-28T10:13:59;4.38;;;1.70;;
23117;SDS011;11728;50.624;6.014;2023-02-28T10:19:19;6.43;;;1.73;;
23117;SDS011;11728;50.624;6.014;2023-02-28T10:34:33;3.78;;;2.30;;
23117;SDS011;11728;50.624;6.014;2023-02-28T10:44:38;3.08;;;1.98;;
23117;SDS011;11728;50.624;6.014;2023-02-28T10:49:39;3.77;;;2.47;;
23117;SDS011;11728;50.624;6.014;2023-02-28T10:54:47;3.60;;;2.40;;
23117;SDS011;11728;50.624;6.014;2023-02-28T10:59:52;6.50;;;3.03;;
23117;SDS011;11728;50.624;6.014;2023-02-28T11:04:54;4.07;;;2.53;;
23117;SDS011;11728;50.624;6.014;2023-02-28T11:09:56;4.22;;;2.67;;
23117;SDS011;11728;50.624;6.014;2023-02-28T11:14:59;7.15;;;3.08;;
23117;SDS011;11728;50.624;6.014;2023-02-28T11:20:06;7.38;;;4.07;;
23117;SDS011;11728;50.624;6.014;2023-02-28T11:30:26;3.10;;;2.05;;
23117;SDS011;11728;50.624;6.014;2023-02-28T11:35:36;5.03;;;3.50;;
23117;SDS011;11728;50.624;6.014;2023-02-28T11:40:43;4.75;;;2.30;;
23117;SDS011;11728;50.624;6.014;2023-02-28T11:51:01;2.97;;;2.00;;
23117;SDS011;11728;50.624;6.014;2023-02-28T12:06:38;4.47;;;2.20;;
23117;SDS011;11728;50.624;6.014;2023-02-28T12:22:27;5.28;;;3.72;;
23117;SDS011;11728;50.624;6.014;2023-02-28T12:27:31;2.80;;;2.13;;
23117;SDS011;11728;50.624;6.014;2023-02-28T12:32:37;3.97;;;2.20;;
23117;SDS011;11728;50.624;6.014;2023-02-28T12:37:57;3.97;;;3.05;;
23117;SDS011;11728;50.624;6.014;2023-02-28T12:43:04;3.33;;;2.20;;
23117;SDS011;11728;50.624;6.014;2023-02-28T12:48:10;5.07;;;2.47;;
23117;SDS011;11728;50.624;6.014;2023-02-28T12:53:39;6.38;;;2.53;;
23117;SDS011;11728;50.624;6.014;2023-02-28T12:58:47;4.25;;;2.13;;
23117;SDS011;11728;50.624;6.014;2023-02-28T13:09:11;4.18;;;2.30;;
23117;SDS011;11728;50.624;6.014;2023-02-28T13:19:35;6.63;;;4.15;;
23117;SDS011;11728;50.624;6.014;2023-02-28T13:24:43;3.60;;;2.15;;
23117;SDS011;11728;50.624;6.014;2023-02-28T13:29:46;3.65;;;2.28;;
23117;SDS011;11728;50.624;6.014;2023-02-28T13:39:52;3.60;;;2.60;;
23117;SDS011;11728;50.624;6.014;2023-02-28T13:45:28;3.80;;;2.50;;
23117;SDS011;11728;50.624;6.014;2023-02-28T13:50:38;5.53;;;2.20;;
23117;SDS011;11728;50.624;6.014;2023-02-28T14:01:04;4.70;;;2.10;;
23117;SDS011;11728;50.624;6.014;2023-02-28T14:11:33;3.90;;;2.35;;
23117;SDS011;11728;50.624;6.014;2023-02-28T14:16:44;4.25;;;2.90;;
23117;SDS011;11728;50.624;6.014;2023-02-28T14:22:06;3.63;;;2.30;;
23117;SDS011;11728;50.624;6.014;2023-02-28T14:32:31;3.00;;;1.98;;
23117;SDS011;11728;50.624;6.014;2023-02-28T14:37:33;3.22;;;2.15;;
23117;SDS011;11728;50.624;6.014;2023-02-28T14:42:39;4.75;;;2.55;;
23117;SDS011;11728;50.624;6.014;2023-02-28T14:47:43;5.40;;;2.65;;
23117;SDS011;11728;50.624;6.014;2023-02-28T14:52:44;3.77;;;2.47;;
23117;SDS011;11728;50.624;6.014;2023-02-28T14:57:51;4.77;;;2.63;;
23117;SDS011;11728;50.624;6.014;2023-02-28T15:02:54;3.63;;;2.75;;
23117;SDS011;11728;50.624;6.014;2023-02-28T15:13:07;4.38;;;2.53;;
23117;SDS011;11728;50.624;6.014;2023-02-28T15:23:23;10.40;;;5.53;;
23117;SDS011;11728;50.624;6.014;2023-02-28T15:28:24;5.22;;;3.22;;
23117;SDS011;11728;50.624;6.014;2023-02-28T15:33:26;7.60;;;2.60;;
23117;SDS011;11728;50.624;6.014;2023-02-28T15:38:28;5.57;;;3.53;;
23117;SDS011;11728;50.624;6.014;2023-02-28T15:43:33;5.85;;;3.03;;
23117;SDS011;11728;50.624;6.014;2023-02-28T15:48:35;6.63;;;3.03;;
23117;SDS011;11728;50.624;6.014;2023-02-28T15:53:43;6.72;;;2.85;;
23117;SDS011;11728;50.624;6.014;2023-02-28T15:58:48;5.15;;;3.13;;
23117;SDS011;11728;50.624;6.014;2023-02-28T16:03:53;6.00;;;3.10;;
23117;SDS011;11728;50.624;6.014;2023-02-28T16:08:56;4.93;;;3.03;;
23117;SDS011;11728;50.624;6.014;2023-02-28T16:13:56;6.95;;;3.22;;
23117;SDS011;11728;50.624;6.014;2023-02-28T16:18:57;4.25;;;2.83;;
23117;SDS011;11728;50.624;6.014;2023-02-28T16:23:57;5.57;;;3.70;;
23117;SDS011;11728;50.624;6.014;2023-02-28T16:28:57;5.80;;;4.00;;
23117;SDS011;11728;50.624;6.014;2023-02-28T16:33:58;5.30;;;3.53;;
23117;SDS011;11728;50.624;6.014;2023-02-28T16:38:58;6.20;;;3.83;;
23117;SDS011;11728;50.624;6.014;2023-02-28T16:43:59;4.50;;;3.10;;
23117;SDS011;11728;50.624;6.014;2023-02-28T16:49:00;4.60;;;2.90;;
23117;SDS011;11728;50.624;6.014;2023-02-28T16:54:01;7.03;;;3.40;;
23117;SDS011;11728;50.624;6.014;2023-02-28T16:59:01;6.10;;;2.97;;
23117;SDS011;11728;50.624;6.014;2023-02-28T17:04:02;6.97;;;4.00;;
23117;SDS011;11728;50.624;6.014;2023-02-28T17:09:03;11.38;;;5.35;;
23117;SDS011;11728;50.624;6.014;2023-02-28T17:14:03;6.70;;;3.87;;
23117;SDS011;11728;50.624;6.014;2023-02-28T17:19:05;6.20;;;3.90;;
23117;SDS011;11728;50.624;6.014;2023-02-28T17:24:09;8.73;;;5.78;;
23117;SDS011;11728;50.624;6.014;2023-02-28T17:29:16;9.70;;;4.28;;
23117;SDS011;11728;50.624;6.014;2023-02-28T17:34:19;5.97;;;3.88;;
23117;SDS011;11728;50.624;6.014;2023-02-28T17:39:20;4.85;;;3.60;;
23117;SDS011;11728;50.624;6.014;2023-02-28T17:44:24;6.97;;;4.03;;
23117;SDS011;11728;50.624;6.014;2023-02-28T17:49:25;11.20;;;6.25;;
23117;SDS011;11728;50.624;6.014;2023-02-28T17:54:25;21.02;;;10.20;;
23117;SDS011;11728;50.624;6.014;2023-02-28T17:59:26;16.20;;;8.57;;
23117;SDS011;11728;50.624;6.014;2023-02-28T18:04:33;15.30;;;8.60;;
23117;SDS011;11728;50.624;6.014;2023-02-28T18:09:33;16.80;;;8.85;;
23117;SDS011;11728;50.624;6.014;2023-02-28T18:14:33;11.93;;;7.60;;
23117;SDS011;11728;50.624;6.014;2023-02-28T18:19:34;14.40;;;8.30;;
23117;SDS011;11728;50.624;6.014;2023-02-28T18:24:34;17.55;;;9.15;;
23117;SDS011;11728;50.624;6.014;2023-02-28T18:29:35;14.20;;;8.75;;
23117;SDS011;11728;50.624;6.014;2023-02-28T18:34:36;19.45;;;12.38;;
23117;SDS011;11728;50.624;6.014;2023-02-28T18:39:37;24.77;;;15.23;;
23117;SDS011;11728;50.624;6.014;2023-02-28T18:44:38;17.05;;;9.95;;
23117;SDS011;11728;50.624;6.014;2023-02-28T18:49:38;14.05;;;8.35;;
23117;SDS011;11728;50.624;6.014;2023-02-28T18:54:38;12.30;;;8.40;;
23117;SDS011;11728;50.624;6.014;2023-02-28T18:59:39;14.90;;;8.53;;
23117;SDS011;11728;50.624;6.014;2023-02-28T19:04:40;13.73;;;8.45;;
23117;SDS011;11728;50.624;6.014;2023-02-28T19:09:41;14.05;;;10.10;;
23117;SDS011;11728;50.624;6.014;2023-02-28T19:14:41;18.00;;;9.77;;
23117;SDS011;11728;50.624;6.014;2023-02-28T19:19:41;20.07;;;11.13;;
23117;SDS011;11728;50.624;6.014;2023-02-28T19:24:42;22.45;;;13.88;;
23117;SDS011;11728;50.624;6.014;2023-02-28T19:29:42;19.25;;;11.35;;
23117;SDS011;11728;50.624;6.014;2023-02-28T19:34:43;24.47;;;14.50;;
23117;SDS011;11728;50.624;6.014;2023-02-28T19:39:44;16.90;;;11.13;;
23117;SDS011;11728;50.624;6.014;2023-02-28T19:44:44;25.65;;;13.95;;
23117;SDS011;11728;50.624;6.014;2023-02-28T19:49:45;16.17;;;9.48;;
23117;SDS011;11728;50.624;6.014;2023-02-28T19:54:45;13.48;;;8.15;;
23117;SDS011;11728;50.624;6.014;2023-02-28T19:59:46;11.20;;;7.47;;
23117;SDS011;11728;50.624;6.014;2023-02-28T20:04:46;10.15;;;7.00;;
23117;SDS011;11728;50.624;6.014;2023-02-28T20:09:50;12.68;;;7.78;;
23117;SDS011;11728;50.624;6.014;2023-02-28T20:14:51;10.45;;;6.93;;
23117;SDS011;11728;50.624;6.014;2023-02-28T20:19:52;11.20;;;7.20;;
23117;SDS011;11728;50.624;6.014;2023-02-28T20:24:52;19.27;;;10.40;;
23117;SDS011;11728;50.624;6.014;2023-02-28T20:29:53;18.95;;;12.27;;
23117;SDS011;11728;50.624;6.014;2023-02-28T20:34:53;22.02;;;12.52;;
23117;SDS011;11728;50.624;6.014;2023-02-28T20:39:53;22.25;;;12.88;;
23117;SDS011;11728;50.624;6.014;2023-02-28T20:44:54;23.77;;;12.68;;
23117;SDS011;11728;50.624;6.014;2023-02-28T20:49:54;26.60;;;14.27;;
23117;SDS011;11728;50.624;6.014;2023-02-28T20:54:54;25.27;;;14.00;;
23117;SDS011;11728;50.624;6.014;2023-02-28T20:59:55;24.90;;;13.18;;
23117;SDS011;11728;50.624;6.014;2023-02-28T21:04:55;21.20;;;12.00;;
23117;SDS011;11728;50.624;6.014;2023-02-28T21:09:55;26.27;;;14.00;;
23117;SDS011;11728;50.624;6.014;2023-02-28T21:14:56;19.55;;;12.85;;
23117;SDS011;11728;50.624;6.014;2023-02-28T21:19:56;16.83;;;10.60;;
23117;SDS011;11728;50.624;6.014;2023-02-28T21:24:56;20.23;;;10.50;;
23117;SDS011;11728;50.624;6.014;2023-02-28T21:29:57;18.58;;;10.32;;
23117;SDS011;11728;50.624;6.014;2023-02-28T21:34:57;19.10;;;11.10;;
23117;SDS011;11728;50.624;6.014;2023-02-28T21:39:58;14.23;;;9.57;;
23117;SDS011;11728;50.624;6.014;2023-02-28T21:44:58;13.60;;;7.30;;
23117;SDS011;11728;50.624;6.014;2023-02-28T21:50:00;11.48;;;6.43;;
23117;SDS011;11728;50.624;6.014;2023-02-28T21:55:00;10.87;;;6.07;;
23117;SDS011;11728;50.624;6.014;2023-02-28T22:00:01;9.52;;;5.35;;
23117;SDS011;11728;50.624;6.014;2023-02-28T22:05:02;8.73;;;5.93;;
23117;SDS011;11728;50.624;6.014;2023-02-28T22:10:03;10.63;;;6.47;;
23117;SDS011;11728;50.624;6.014;2023-02-28T22:15:04;7.82;;;5.70;;
23117;SDS011;11728;50.624;6.014;2023-02-28T22:20:05;10.48;;;6.15;;
23117;SDS011;11728;50.624;6.014;2023-02-28T22:25:06;8.68;;;5.63;;
23117;SDS011;11728;50.624;6.014;2023-02-28T22:30:08;8.65;;;6.03;;
23117;SDS011;11728;50.624;6.014;2023-02-28T22:35:09;10.43;;;6.03;;
23117;SDS011;11728;50.624;6.014;2023-02-28T22:40:10;13.30;;;8.32;;
23117;SDS011;11728;50.624;6.014;2023-02-28T22:45:10;15.43;;;9.98;;
23117;SDS011;11728;50.624;6.014;2023-02-28T22:50:11;16.83;;;10.82;;
23117;SDS011;11728;50.624;6.014;2023-02-28T22:55:11;18.07;;;11.63;;
23117;SDS011;11728;50.624;6.014;2023-02-28T23:00:12;25.10;;;14.02;;
23117;SDS011;11728;50.624;6.014;2023-02-28T23:05:14;19.40;;;12.80;;
23117;SDS011;11728;50.624;6.014;2023-02-28T23:10:15;21.20;;;11.98;;
23117;SDS011;11728;50.624;6.014;2023-02-28T23:15:17;19.25;;;12.02;;
23117;SDS011;11728;50.624;6.014;2023-02-28T23:20:22;20.60;;;11.15;;
23117;SDS011;11728;50.624;6.014;2023-02-28T23:25:22;22.08;;;12.95;;
23117;SDS011;11728;50.624;6.014;2023-02-28T23:30:23;20.58;;;12.43;;
23117;SDS011;11728;50.624;6.014;2023-02-28T23:35:23;19.83;;;11.77;;
23117;SDS011;11728;50.624;6.014;2023-02-28T23:40:23;19.75;;;10.35;;
23117;SDS011;11728;50.624;6.014;2023-02-28T23:45:24;14.20;;;8.88;;
23117;SDS011;11728;50.624;6.014;2023-02-28T23:50:25;11.73;;;7.00;;
23117;SDS011;11728;50.624;6.014;2023-02-28T23:55:25;12.77;;;8.73;;
